This is the latest recevied weather packets stored in our database for station/object OK3MS-5. If no packets are shown the sender has not sent any weather packets the latest 10 day(s).
| Time | Temp. | Humidity | Pressure | Rain* | Wind** | Luminosity | Snow |
|---|---|---|---|---|---|---|---|
| 1787592904 | 20° C | 49% | 1016.5 hPa | 0 mm | - | 11 W/m² | - |
| 1787592604 | 20° C | 47% | 1016.5 hPa | 0 mm | - | 13 W/m² | - |
| 1787592304 | 20.56° C | 47% | 1016.2 hPa | 0 mm | - | 17 W/m² | - |
| 1787592003 | 20.56° C | 48% | 1016.2 hPa | 0 mm | - | 25 W/m² | - |
| 1787591706 | 21.11° C | 49% | 1016.2 hPa | 0 mm | - | 31 W/m² | - |
| 1787591402 | 21.11° C | 48% | 1016.2 hPa | 0 mm | - | 39 W/m² | - |
| 1787591107 | 21.11° C | 49% | 1016.2 hPa | 0 mm | - | 66 W/m² | - |
| 1787590805 | 21.11° C | 48% | 1016.3 hPa | 0 mm | - | 79 W/m² | - |
| 1787590506 | 21.11° C | 48% | 1016.3 hPa | 0 mm | - | 79 W/m² | - |
| 1787590206 | 21.11° C | 48% | 1016.5 hPa | 0 mm | - | 76 W/m² | - |
| 1787589906 | 20.56° C | 48% | 1016.7 hPa | 0 mm | - | 61 W/m² | - |
| 1787589604 | 20.56° C | 47% | 1016.8 hPa | 0 mm | - | 65 W/m² | - |
| 1787589305 | 21.11° C | 46% | 1016.6 hPa | 0 mm | - | 68 W/m² | - |
| 1787589005 | 21.11° C | 46% | 1016.7 hPa | 0 mm | - | 68 W/m² | - |
| 1787588704 | 21.11° C | 45% | 1016.8 hPa | 0 mm | - | 71 W/m² | - |
| 1787588403 | 21.67° C | 45% | 1016.8 hPa | 0 mm | - | 111 W/m² | - |
| 1787588104 | 21.67° C | 45% | 1016.8 hPa | 0 mm | - | 88 W/m² | - |
| 1787587803 | 21.67° C | 43% | 1017 hPa | 0 mm | - | 79 W/m² | - |
| 1787587505 | 21.67° C | 44% | 1016.9 hPa | 0 mm | - | 144 W/m² | - |
| 1787587204 | 21.67° C | 43% | 1016.9 hPa | 0 mm | - | 185 W/m² | - |
| 1787586903 | 22.22° C | 44% | 1016.9 hPa | 0 mm | - | 137 W/m² | - |
| 1787586605 | 21.67° C | 42% | 1017.1 hPa | 0 mm | - | 84 W/m² | - |
| 1787586302 | 22.22° C | 42% | 1017.2 hPa | 0 mm | - | 169 W/m² | - |
| 1787586003 | 22.22° C | 41% | 1017.2 hPa | 0 mm | - | 176 W/m² | - |
| 1787585703 | 22.22° C | 42% | 1017.2 hPa | 0 mm | - | 212 W/m² | - |
* Rain latest hour (hover to see other rain measurements)
** Current wind speed in m/s (hover to see current wind gust speed)